createdAt,value
2023-04-02T00:00:36.173Z,0.42
2023-04-02T00:02:08.007Z,0.56
2023-04-02T00:03:39.711Z,0.45
2023-04-02T00:05:11.223Z,0.39
2023-04-02T00:06:43.205Z,0.33
2023-04-02T00:08:14.394Z,0.44
2023-04-02T00:09:46.488Z,0.36
2023-04-02T00:11:20.680Z,0.45
2023-04-02T00:12:52.350Z,0.53
2023-04-02T00:14:23.952Z,2.22
2023-04-02T00:15:55.854Z,1.44
2023-04-02T00:17:27.218Z,0.36
2023-04-02T00:18:59.516Z,0.69
2023-04-02T00:20:30.811Z,0.77
2023-04-02T00:22:02.341Z,0.33
2023-04-02T00:23:33.626Z,0.38
2023-04-02T00:25:04.891Z,0.40
2023-04-02T00:26:36.320Z,0.43
2023-04-02T00:28:07.842Z,0.54
2023-04-02T00:29:39.217Z,0.66
2023-04-02T00:31:10.479Z,0.45
2023-04-02T00:32:42.937Z,0.60
2023-04-02T00:34:14.276Z,0.46
2023-04-02T00:35:45.668Z,0.53
2023-04-02T00:37:17.058Z,0.34
2023-04-02T00:38:48.820Z,0.37
2023-04-02T00:40:20.574Z,0.38
2023-04-02T00:41:51.947Z,0.40
2023-04-02T00:43:23.375Z,0.41
2023-04-02T00:44:54.734Z,0.50
2023-04-02T00:46:26.227Z,0.42
2023-04-02T00:47:57.627Z,0.43
2023-04-02T00:49:28.914Z,0.41
2023-04-02T00:51:00.105Z,0.71
2023-04-02T00:52:31.291Z,0.35
2023-04-02T00:54:02.555Z,0.34
2023-04-02T00:55:34.208Z,0.35
2023-04-02T00:57:05.743Z,0.40
2023-04-02T00:58:37.188Z,0.43
2023-04-02T01:00:08.512Z,0.36
2023-04-02T01:01:40.036Z,0.43
2023-04-02T01:03:11.450Z,0.43
2023-04-02T01:04:42.942Z,0.51
2023-04-02T01:06:14.543Z,0.48
2023-04-02T01:07:46.013Z,0.50
2023-04-02T01:09:17.294Z,0.40
2023-04-02T01:10:48.795Z,0.43
2023-04-02T01:12:20.082Z,0.44
2023-04-02T01:13:51.453Z,0.42
2023-04-02T01:15:22.650Z,0.49
2023-04-02T01:16:53.947Z,0.82
2023-04-02T01:18:25.218Z,0.44
2023-04-02T01:19:56.503Z,0.48
2023-04-02T01:21:27.757Z,0.42
2023-04-02T01:22:58.946Z,0.44
2023-04-02T01:24:30.124Z,0.39
2023-04-02T01:26:01.496Z,0.73
2023-04-02T01:27:32.674Z,0.41
2023-04-02T01:29:03.969Z,0.70
2023-04-02T01:30:35.191Z,0.48
2023-04-02T01:32:06.621Z,0.41
2023-04-02T01:33:38.020Z,0.63
2023-04-02T01:35:09.239Z,0.49
2023-04-02T01:36:40.559Z,0.33
2023-04-02T01:38:11.843Z,0.46
2023-04-02T01:39:43.374Z,0.73
2023-04-02T01:41:14.720Z,0.47
2023-04-02T01:42:45.986Z,0.50
2023-04-02T01:44:18.062Z,0.63
2023-04-02T01:45:49.435Z,0.47
2023-04-02T01:47:20.723Z,0.63
2023-04-02T01:48:52.121Z,0.47
2023-04-02T01:50:23.480Z,0.50
2023-04-02T01:51:54.740Z,0.53
2023-04-02T01:53:26.120Z,0.49
2023-04-02T01:54:57.594Z,0.44
2023-04-02T01:56:28.800Z,0.53
2023-04-02T01:58:00.057Z,0.47
2023-04-02T01:59:31.267Z,0.42
2023-04-02T02:01:02.567Z,0.40
2023-04-02T02:02:33.912Z,0.47
2023-04-02T02:04:05.152Z,0.53
2023-04-02T02:05:36.818Z,0.40
2023-04-02T02:07:08.223Z,0.35
2023-04-02T02:08:39.623Z,0.81
2023-04-02T02:10:10.961Z,0.66
2023-04-02T02:11:42.289Z,0.98
2023-04-02T02:13:13.532Z,0.70
2023-04-02T02:14:44.742Z,0.41
2023-04-02T02:16:16.112Z,0.45
2023-04-02T02:17:47.530Z,0.42
2023-04-02T02:19:18.766Z,0.51
2023-04-02T02:20:49.945Z,0.50
2023-04-02T02:22:21.133Z,1.39
2023-04-02T02:23:52.618Z,0.60
2023-04-02T02:25:24.310Z,0.75
2023-04-02T02:26:55.678Z,0.47
2023-04-02T02:28:26.853Z,0.48
2023-04-02T02:29:58.120Z,0.48
2023-04-02T02:31:29.557Z,0.67
2023-04-02T02:33:01.162Z,0.45
2023-04-02T02:34:32.474Z,0.46
2023-04-02T02:36:03.876Z,0.54
2023-04-02T02:37:35.412Z,0.45
2023-04-02T02:39:07.656Z,0.62
2023-04-02T02:40:39.050Z,0.43
2023-04-02T02:42:10.343Z,0.41
2023-04-02T02:43:41.609Z,0.36
2023-04-02T02:45:14.024Z,0.52
2023-04-02T02:46:45.360Z,1.01
2023-04-02T02:48:16.697Z,0.76
2023-04-02T02:49:47.968Z,0.53
2023-04-02T02:51:19.241Z,0.91
2023-04-02T02:52:50.483Z,1.21
2023-04-02T02:54:21.653Z,0.97
2023-04-02T02:55:52.812Z,0.77
2023-04-02T02:57:24.090Z,0.54
2023-04-02T02:58:55.546Z,0.46
2023-04-02T03:00:27.009Z,0.42
2023-04-02T03:01:58.249Z,0.44
2023-04-02T03:03:29.601Z,0.43
2023-04-02T03:05:00.928Z,0.38
2023-04-02T03:06:32.303Z,0.44
2023-04-02T03:08:03.629Z,0.48
2023-04-02T03:09:34.840Z,0.54
2023-04-02T03:11:06.056Z,0.40
2023-04-02T03:12:37.339Z,0.51
2023-04-02T03:14:08.516Z,0.45
2023-04-02T03:15:39.739Z,0.39
2023-04-02T03:17:10.942Z,0.51
2023-04-02T03:18:42.221Z,0.43
2023-04-02T03:20:13.393Z,0.97
2023-04-02T03:21:44.631Z,1.14
2023-04-02T03:23:16.731Z,0.50
2023-04-02T03:24:49.102Z,0.45
2023-04-02T03:26:20.639Z,0.48
2023-04-02T03:27:51.890Z,0.57
2023-04-02T03:29:23.068Z,0.38
2023-04-02T03:30:54.446Z,0.76
2023-04-02T03:32:25.922Z,0.41
2023-04-02T03:34:02.130Z,0.46
2023-04-02T03:35:33.986Z,0.42
2023-04-02T03:37:05.691Z,0.41
2023-04-02T03:38:37.142Z,0.55
2023-04-02T03:40:08.271Z,0.47
2023-04-02T03:41:39.482Z,0.46
2023-04-02T03:43:10.843Z,0.43
2023-04-02T03:44:42.119Z,0.39
2023-04-02T03:46:13.352Z,0.52
2023-04-02T03:47:44.534Z,0.45
2023-04-02T03:49:15.793Z,0.46
2023-04-02T03:50:47.267Z,0.42
2023-04-02T03:52:18.534Z,0.44
2023-04-02T03:53:49.842Z,0.65
2023-04-02T03:55:21.077Z,0.38
2023-04-02T03:56:52.543Z,0.63
2023-04-02T03:58:23.864Z,0.39
2023-04-02T03:59:55.064Z,0.75
2023-04-02T04:01:26.332Z,0.60
2023-04-02T04:02:57.658Z,0.41
2023-04-02T04:04:29.191Z,0.48
2023-04-02T04:06:00.695Z,0.57
2023-04-02T04:07:32.030Z,0.37
2023-04-02T04:09:03.257Z,0.42
2023-04-02T04:10:34.476Z,0.37
2023-04-02T04:12:05.763Z,0.57
2023-04-02T04:13:37.015Z,1.78
2023-04-02T04:15:08.152Z,0.49
2023-04-02T04:16:39.428Z,0.49
2023-04-02T04:18:10.805Z,0.57
2023-04-02T04:19:42.172Z,0.47
2023-04-02T04:21:13.320Z,0.67
2023-04-02T04:22:44.625Z,1.07
2023-04-02T04:24:16.098Z,0.45
2023-04-02T04:25:47.554Z,0.54
2023-04-02T04:27:18.900Z,0.66
2023-04-02T04:28:50.071Z,0.60
2023-04-02T04:30:21.281Z,0.59
2023-04-02T04:31:52.756Z,0.44
2023-04-02T04:33:24.071Z,0.57
2023-04-02T04:34:55.390Z,5.51
2023-04-02T04:36:26.608Z,0.66
2023-04-02T04:37:57.783Z,0.49
2023-04-02T04:39:28.950Z,0.52
2023-04-02T04:41:00.490Z,0.45
2023-04-02T04:42:31.769Z,0.54
2023-04-02T04:44:03.166Z,1.18
2023-04-02T04:45:34.606Z,0.65
2023-04-02T04:47:06.006Z,0.50
2023-04-02T04:48:37.413Z,0.92
2023-04-02T04:50:08.724Z,0.60
2023-04-02T04:51:39.957Z,0.70
2023-04-02T04:53:11.140Z,0.97
2023-04-02T04:54:42.433Z,0.80
2023-04-02T04:56:19.333Z,0.91
2023-04-02T04:57:51.325Z,0.58
2023-04-02T04:59:22.586Z,0.56
2023-04-02T05:00:53.873Z,0.44
2023-04-02T05:02:25.104Z,0.61
2023-04-02T05:03:56.349Z,0.60
2023-04-02T05:05:27.576Z,0.79
2023-04-02T05:06:58.854Z,0.50
2023-04-02T05:08:30.595Z,1.28
2023-04-02T05:10:01.956Z,0.61
2023-04-02T05:11:33.106Z,0.55
2023-04-02T05:13:04.265Z,1.18
2023-04-02T05:14:35.738Z,0.87
2023-04-02T05:16:07.151Z,0.47
2023-04-02T05:17:55.138Z,0.60
2023-04-02T05:19:27.867Z,1.66
2023-04-02T05:20:59.603Z,0.59
2023-04-02T05:22:30.992Z,1.11
2023-04-02T05:24:02.500Z,0.75
2023-04-02T05:25:34.154Z,0.91
2023-04-02T05:27:05.775Z,0.73
2023-04-02T05:28:51.491Z,0.62
2023-04-02T05:30:23.105Z,0.85
2023-04-02T05:31:54.615Z,0.83
2023-04-02T05:33:26.107Z,1.15
2023-04-02T05:34:57.815Z,0.99
2023-04-02T05:36:29.177Z,0.67
2023-04-02T05:38:00.438Z,0.62
2023-04-02T05:39:32.006Z,0.54
2023-04-02T05:41:03.457Z,0.77
2023-04-02T05:42:35.813Z,1.30
2023-04-02T05:44:07.142Z,0.58
2023-04-02T05:45:38.376Z,0.57
2023-04-02T05:47:09.563Z,1.81
2023-04-02T05:48:40.842Z,1.66
2023-04-02T05:50:12.183Z,0.66
2023-04-02T05:51:43.350Z,2.68
2023-04-02T05:53:14.621Z,0.95
2023-04-02T05:54:45.853Z,0.82
2023-04-02T05:56:17.133Z,0.64
2023-04-02T05:58:01.159Z,0.83
2023-04-02T05:59:45.281Z,2.04
2023-04-02T06:01:16.760Z,1.10
2023-04-02T06:02:48.043Z,0.58
2023-04-02T06:04:19.428Z,0.66
2023-04-02T06:05:50.821Z,0.57
2023-04-02T06:07:22.152Z,0.57
2023-04-02T06:08:53.327Z,1.18
2023-04-02T06:10:25.213Z,0.56
2023-04-02T06:11:56.597Z,0.46
2023-04-02T06:13:27.727Z,0.53
2023-04-02T06:14:58.933Z,0.57
2023-04-02T06:16:30.398Z,1.31
2023-04-02T06:18:01.835Z,0.85
2023-04-02T06:19:33.055Z,0.77
2023-04-02T06:21:04.443Z,0.84
2023-04-02T06:22:35.665Z,0.78
2023-04-02T06:24:07.050Z,0.55
2023-04-02T06:25:38.481Z,0.62
2023-04-02T06:27:09.851Z,0.91
2023-04-02T06:28:41.122Z,0.50
2023-04-02T06:30:12.442Z,0.57
2023-04-02T06:31:43.610Z,0.63
2023-04-02T06:33:14.859Z,0.78
2023-04-02T06:34:46.618Z,0.87
2023-04-02T06:36:17.993Z,3.48
2023-04-02T06:37:49.488Z,0.76
2023-04-02T06:39:20.843Z,0.61
2023-04-02T06:40:52.240Z,1.67
2023-04-02T06:42:23.547Z,0.49
2023-04-02T06:43:54.775Z,0.59
2023-04-02T06:45:26.306Z,0.64
2023-04-02T06:47:07.533Z,0.61
2023-04-02T06:48:38.686Z,0.49
2023-04-02T06:50:10.218Z,0.51
2023-04-02T06:51:41.665Z,0.47
2023-04-02T06:53:13.237Z,0.56
2023-04-02T06:54:44.556Z,1.52
2023-04-02T06:56:15.889Z,0.86
2023-04-02T06:57:47.256Z,0.46
2023-04-02T06:59:18.510Z,0.51
2023-04-02T07:00:49.766Z,0.70
2023-04-02T07:02:21.300Z,0.66
2023-04-02T07:03:52.624Z,0.64
2023-04-02T07:05:23.761Z,0.70
2023-04-02T07:06:55.044Z,0.78
2023-04-02T07:08:26.253Z,0.60
2023-04-02T07:09:57.480Z,0.45
2023-04-02T07:11:28.703Z,0.58
2023-04-02T07:12:59.977Z,0.61
2023-04-02T07:14:31.265Z,0.78
2023-04-02T07:16:36.691Z,1.49
2023-04-02T07:18:07.854Z,0.86
2023-04-02T07:19:39.124Z,0.66
2023-04-02T07:21:10.424Z,0.52
2023-04-02T07:22:41.842Z,0.56
2023-04-02T07:24:13.125Z,0.77
2023-04-02T07:25:44.624Z,0.92
2023-04-02T07:27:15.851Z,0.98
2023-04-02T07:28:46.999Z,0.88
2023-04-02T07:30:18.600Z,0.61
2023-04-02T07:31:49.889Z,0.60
2023-04-02T07:33:21.453Z,0.46
2023-04-02T07:34:52.784Z,1.71
2023-04-02T07:36:23.989Z,2.97
2023-04-02T07:37:55.281Z,0.45
2023-04-02T07:39:26.522Z,0.39
2023-04-02T07:40:57.848Z,0.39
2023-04-02T07:42:29.997Z,1.13
2023-04-02T07:44:01.549Z,0.53
2023-04-02T07:45:33.183Z,0.67
2023-04-02T07:47:04.676Z,0.62
2023-04-02T07:48:35.964Z,0.48
2023-04-02T07:50:07.181Z,0.57
2023-04-02T07:51:38.447Z,0.48
2023-04-02T07:53:09.850Z,0.51
2023-04-02T07:54:41.128Z,0.42
2023-04-02T07:56:12.227Z,0.59
2023-04-02T07:57:53.418Z,0.71
2023-04-02T07:59:24.814Z,1.10
2023-04-02T08:00:56.134Z,1.12
2023-04-02T08:02:32.577Z,0.52
2023-04-02T08:04:03.842Z,0.43
2023-04-02T08:05:35.545Z,0.51
2023-04-02T08:07:06.965Z,0.74
2023-04-02T08:08:38.146Z,0.43
2023-04-02T08:10:09.271Z,0.48
2023-04-02T08:11:40.624Z,0.57
2023-04-02T08:13:11.971Z,0.56
2023-04-02T08:14:43.188Z,0.77
2023-04-02T08:16:14.519Z,0.99
2023-04-02T08:17:45.952Z,0.44
2023-04-02T08:19:17.294Z,0.67
2023-04-02T08:20:48.602Z,0.42
2023-04-02T08:22:19.863Z,0.58
2023-04-02T08:23:51.295Z,0.45
2023-04-02T08:25:22.566Z,0.42
2023-04-02T08:26:53.732Z,0.42
2023-04-02T08:28:25.022Z,0.53
2023-04-02T08:29:56.237Z,0.50
2023-04-02T08:31:28.188Z,0.51
2023-04-02T08:33:00.233Z,0.74
2023-04-02T08:34:31.568Z,0.58
2023-04-02T08:36:08.357Z,0.62
2023-04-02T08:37:39.779Z,2.42
2023-04-02T08:39:11.009Z,0.44
2023-04-02T08:40:42.352Z,0.49
2023-04-02T08:42:13.578Z,0.47
2023-04-02T08:43:45.040Z,0.51
2023-04-02T08:45:24.953Z,0.44
2023-04-02T08:46:56.952Z,0.41
2023-04-02T08:48:29.065Z,0.55
2023-04-02T08:50:00.342Z,0.69
2023-04-02T08:51:31.711Z,3.94
2023-04-02T08:53:03.090Z,0.74
2023-04-02T08:54:34.951Z,0.45
2023-04-02T08:56:06.242Z,0.46
2023-04-02T08:57:37.796Z,0.51
2023-04-02T08:59:09.243Z,1.51
2023-04-02T09:00:40.415Z,0.41
2023-04-02T09:02:11.746Z,0.62
2023-04-02T09:03:43.135Z,0.76
2023-04-02T09:05:19.617Z,0.49
2023-04-02T09:06:50.958Z,0.55
2023-04-02T09:08:22.185Z,0.45
2023-04-02T09:09:53.510Z,0.55
2023-04-02T09:11:25.002Z,1.32
2023-04-02T09:12:56.245Z,0.99
2023-04-02T09:14:28.303Z,0.64
2023-04-02T09:15:59.752Z,0.45
2023-04-02T09:17:36.922Z,0.50
2023-04-02T09:19:14.368Z,0.35
2023-04-02T09:20:50.980Z,1.65
2023-04-02T09:22:22.334Z,0.42
2023-04-02T09:23:53.752Z,0.44
2023-04-02T09:25:25.212Z,0.53
2023-04-02T09:26:56.388Z,0.58
2023-04-02T09:28:32.566Z,0.64
2023-04-02T09:30:03.797Z,0.48
2023-04-02T09:31:35.149Z,0.45
2023-04-02T09:33:06.725Z,0.41
2023-04-02T09:34:38.524Z,3.04
2023-04-02T09:36:09.786Z,0.42
2023-04-02T09:37:41.062Z,0.38
2023-04-02T09:39:17.401Z,0.42
2023-04-02T09:40:48.694Z,0.43
2023-04-02T09:42:19.859Z,0.51
2023-04-02T09:43:51.176Z,0.46
2023-04-02T09:45:22.458Z,0.43
2023-04-02T09:46:53.869Z,0.63
2023-04-02T09:48:25.150Z,0.68
2023-04-02T09:49:56.450Z,0.35
2023-04-02T09:51:28.118Z,0.69
2023-04-02T09:52:59.948Z,0.52
2023-04-02T09:54:31.128Z,0.50
2023-04-02T09:56:02.283Z,0.45
2023-04-02T09:57:33.575Z,0.41
2023-04-02T09:59:04.894Z,0.40
2023-04-02T10:00:37.327Z,0.40
2023-04-02T10:02:08.840Z,0.60
2023-04-02T10:03:40.260Z,0.67
2023-04-02T10:05:11.478Z,0.50
2023-04-02T10:06:42.792Z,1.04
2023-04-02T10:08:14.151Z,0.36
2023-04-02T10:09:45.662Z,0.55
2023-04-02T10:11:16.984Z,0.44
2023-04-02T10:12:48.291Z,0.52
2023-04-02T10:14:19.642Z,0.46
2023-04-02T10:15:50.808Z,0.39
2023-04-02T10:17:22.126Z,0.38
2023-04-02T10:18:53.449Z,0.45
2023-04-02T10:20:24.895Z,0.45
2023-04-02T10:21:56.297Z,5.85
2023-04-02T10:23:27.655Z,0.59
2023-04-02T10:24:58.948Z,0.45
2023-04-02T10:26:30.584Z,0.49
2023-04-02T10:28:01.871Z,0.68
2023-04-02T10:29:33.120Z,0.44
2023-04-02T10:31:04.529Z,0.45
2023-04-02T10:32:35.957Z,0.44
2023-04-02T10:34:07.215Z,3.88
2023-04-02T10:35:38.811Z,0.38
2023-04-02T10:37:10.939Z,0.44
2023-04-02T10:38:42.183Z,0.43
2023-04-02T10:40:14.689Z,0.52
2023-04-02T10:41:46.040Z,0.63
2023-04-02T10:43:17.326Z,0.42
2023-04-02T10:44:48.804Z,0.51
2023-04-02T10:46:20.961Z,0.68
2023-04-02T10:47:53.721Z,0.64
2023-04-02T10:49:25.107Z,0.45
2023-04-02T10:50:56.441Z,0.50
2023-04-02T10:52:27.807Z,0.81
2023-04-02T10:53:59.080Z,1.17
2023-04-02T10:55:30.376Z,1.42
2023-04-02T10:57:01.747Z,0.58
2023-04-02T10:58:33.013Z,0.40
2023-04-02T11:00:04.186Z,0.39
2023-04-02T11:01:35.459Z,0.44
2023-04-02T11:03:06.825Z,0.43
2023-04-02T11:04:38.231Z,0.45
2023-04-02T11:06:10.817Z,0.37
2023-04-02T11:07:43.318Z,0.62
2023-04-02T11:09:14.540Z,4.45
2023-04-02T11:10:45.777Z,8.63
2023-04-02T11:12:17.100Z,6.89
2023-04-02T11:13:48.391Z,6.01
2023-04-02T11:15:19.714Z,5.86
2023-04-02T11:16:50.916Z,4.76
2023-04-02T11:18:22.097Z,8.22
2023-04-02T11:19:53.269Z,7.99
2023-04-02T11:21:24.857Z,7.65
2023-04-02T11:22:56.289Z,8.41
2023-04-02T11:24:27.589Z,6.47
2023-04-02T11:25:58.912Z,7.65
2023-04-02T11:27:30.126Z,6.81
2023-04-02T11:29:01.303Z,7.00
2023-04-02T11:30:32.560Z,5.03
2023-04-02T11:32:03.843Z,5.79
2023-04-02T11:33:38.236Z,4.69
2023-04-02T11:35:10.687Z,5.14
2023-04-02T11:36:41.973Z,6.90
2023-04-02T11:38:13.124Z,6.37
2023-04-02T11:39:44.336Z,5.43
2023-04-02T11:41:15.618Z,5.35
2023-04-02T11:42:46.983Z,5.58
2023-04-02T11:44:18.157Z,6.42
2023-04-02T11:45:52.785Z,4.67
2023-04-02T11:47:24.715Z,4.74
2023-04-02T11:48:56.119Z,6.56
2023-04-02T11:50:27.371Z,5.16
2023-04-02T11:52:09.332Z,5.26
2023-04-02T11:53:43.439Z,5.38
2023-04-02T11:55:15.010Z,4.58
2023-04-02T11:56:46.376Z,3.74
2023-04-02T11:58:17.648Z,4.15
2023-04-02T11:59:49.092Z,5.17
2023-04-02T12:01:20.258Z,5.65
2023-04-02T12:02:51.765Z,5.76
2023-04-02T12:04:23.028Z,4.17
2023-04-02T12:05:54.295Z,5.53
2023-04-02T12:07:25.556Z,4.02
2023-04-02T12:08:58.169Z,2.68
2023-04-02T12:10:29.904Z,3.86
2023-04-02T12:12:01.107Z,3.26
2023-04-02T12:13:32.356Z,3.71
2023-04-02T12:15:03.499Z,3.95
2023-04-02T12:16:34.776Z,4.58
2023-04-02T12:18:06.126Z,3.75
2023-04-02T12:19:37.383Z,5.43
2023-04-02T12:21:08.828Z,4.86
2023-04-02T12:22:40.125Z,4.26
2023-04-02T12:24:11.378Z,4.83
2023-04-02T12:25:42.597Z,3.10
2023-04-02T12:27:13.818Z,5.52
2023-04-02T12:28:45.140Z,4.65
2023-04-02T12:30:16.611Z,4.42
2023-04-02T12:31:48.064Z,3.53
2023-04-02T12:33:19.430Z,3.42
2023-04-02T12:34:50.705Z,3.18
2023-04-02T12:36:22.261Z,3.70
2023-04-02T12:37:53.597Z,4.40
2023-04-02T12:39:27.973Z,4.24
2023-04-02T12:41:00.341Z,3.16
2023-04-02T12:42:31.672Z,3.90
2023-04-02T12:44:02.998Z,4.70
2023-04-02T12:45:34.302Z,3.53
2023-04-02T12:47:05.686Z,4.61
2023-04-02T12:48:36.925Z,4.86
2023-04-02T12:50:08.161Z,4.34
2023-04-02T12:51:39.512Z,5.13
2023-04-02T12:53:10.866Z,4.99
2023-04-02T12:54:42.200Z,3.41
2023-04-02T12:56:13.552Z,4.44
2023-04-02T12:57:45.701Z,5.58
2023-04-02T12:59:17.277Z,3.06
2023-04-02T13:00:53.563Z,4.18
2023-04-02T13:02:24.855Z,4.06
2023-04-02T13:03:56.353Z,4.73
2023-04-02T13:05:32.764Z,3.70
2023-04-02T13:07:03.986Z,4.00
2023-04-02T13:08:35.218Z,4.37
2023-04-02T13:10:06.493Z,4.51
2023-04-02T13:11:37.737Z,5.18
2023-04-02T13:13:08.965Z,4.06
2023-04-02T13:14:40.423Z,3.63
2023-04-02T13:16:12.032Z,4.08
2023-04-02T13:17:43.439Z,4.60
2023-04-02T13:19:14.993Z,3.35
2023-04-02T13:20:46.318Z,4.77
2023-04-02T13:22:17.608Z,3.57
2023-04-02T13:23:49.304Z,3.11
2023-04-02T13:25:20.802Z,5.35
2023-04-02T13:26:52.184Z,4.51
2023-04-02T13:28:23.401Z,5.99
2023-04-02T13:29:54.796Z,5.33
2023-04-02T13:31:26.108Z,3.85
2023-04-02T13:32:57.571Z,4.41
2023-04-02T13:34:28.908Z,4.47
2023-04-02T13:36:00.163Z,4.98
2023-04-02T13:37:31.578Z,4.43
2023-04-02T13:39:02.869Z,3.22
2023-04-02T13:40:34.356Z,4.06
2023-04-02T13:42:06.196Z,5.48
2023-04-02T13:43:37.682Z,4.96
2023-04-02T13:45:08.986Z,4.43
2023-04-02T13:46:40.428Z,5.04
2023-04-02T13:48:11.691Z,5.40
2023-04-02T13:49:43.117Z,5.83
2023-04-02T13:51:14.388Z,4.86
2023-04-02T13:52:45.856Z,3.83
2023-04-02T13:54:17.151Z,4.11
2023-04-02T13:55:48.446Z,4.53
2023-04-02T13:57:19.734Z,3.37
2023-04-02T13:58:51.090Z,4.03
2023-04-02T14:00:22.366Z,4.09
2023-04-02T14:01:53.724Z,3.99
2023-04-02T14:03:25.124Z,3.91
2023-04-02T14:04:56.568Z,4.07
2023-04-02T14:06:28.094Z,4.70
2023-04-02T14:07:59.546Z,4.13
2023-04-02T14:09:30.839Z,4.54
2023-04-02T14:11:02.137Z,5.16
2023-04-02T14:12:33.325Z,5.20
2023-04-02T14:14:04.699Z,3.93
2023-04-02T14:15:36.238Z,5.45
2023-04-02T14:17:07.905Z,3.92
2023-04-02T14:18:39.592Z,4.77
2023-04-02T14:20:10.917Z,3.58
2023-04-02T14:21:43.515Z,3.78
2023-04-02T14:23:15.136Z,4.68
2023-04-02T14:24:46.346Z,3.62
2023-04-02T14:26:17.709Z,3.84
2023-04-02T14:27:49.049Z,5.60
2023-04-02T14:29:20.349Z,3.60
2023-04-02T14:30:51.707Z,3.10
2023-04-02T14:32:23.056Z,5.04
2023-04-02T14:33:54.330Z,4.89
2023-04-02T14:35:25.663Z,4.38
2023-04-02T14:36:57.009Z,4.78
2023-04-02T14:38:28.321Z,3.34
2023-04-02T14:39:59.645Z,3.47
2023-04-02T14:41:30.891Z,3.75
2023-04-02T14:43:02.202Z,4.41
2023-04-02T14:44:33.584Z,3.94
2023-04-02T14:46:04.890Z,4.86
2023-04-02T14:47:36.490Z,3.89
2023-04-02T14:49:07.807Z,4.04
2023-04-02T14:50:39.078Z,4.17
2023-04-02T14:52:10.509Z,3.95
2023-04-02T14:53:41.854Z,4.34
2023-04-02T14:55:13.134Z,3.32
2023-04-02T14:56:44.406Z,3.38
2023-04-02T14:58:15.950Z,2.93
2023-04-02T14:59:47.278Z,2.98
2023-04-02T15:01:18.757Z,3.61
2023-04-02T15:02:50.195Z,3.74
2023-04-02T15:04:21.559Z,3.96
2023-04-02T15:05:52.810Z,4.11
2023-04-02T15:07:24.280Z,5.66
2023-04-02T15:09:08.323Z,3.24
2023-04-02T15:10:40.496Z,4.54
2023-04-02T15:12:21.762Z,4.20
2023-04-02T15:13:53.067Z,4.91
2023-04-02T15:15:36.927Z,2.85
2023-04-02T15:17:11.284Z,4.52
2023-04-02T15:18:42.756Z,5.68
2023-04-02T15:20:13.961Z,3.65
2023-04-02T15:21:55.733Z,5.22
2023-04-02T15:23:29.894Z,5.58
2023-04-02T15:25:01.218Z,5.65
2023-04-02T15:26:32.443Z,3.98
2023-04-02T15:28:03.709Z,3.42
2023-04-02T15:29:34.978Z,3.47
2023-04-02T15:31:06.548Z,4.47
2023-04-02T15:32:38.120Z,5.85
2023-04-02T15:34:14.591Z,4.09
2023-04-02T15:35:46.459Z,3.86
2023-04-02T15:37:18.049Z,3.80
2023-04-02T15:38:49.590Z,3.80
2023-04-02T15:40:21.146Z,3.88
2023-04-02T15:41:52.474Z,3.37
2023-04-02T15:43:23.776Z,2.72
2023-04-02T15:44:55.318Z,4.11
2023-04-02T15:46:26.961Z,4.04
2023-04-02T15:47:58.685Z,4.23
2023-04-02T15:49:29.975Z,5.15
2023-04-02T15:51:01.436Z,3.99
2023-04-02T15:52:32.730Z,5.93
2023-04-02T15:54:04.230Z,4.36
2023-04-02T15:55:35.507Z,3.72
2023-04-02T15:57:06.868Z,5.41
2023-04-02T15:58:38.203Z,4.18
2023-04-02T16:00:09.549Z,3.47
2023-04-02T16:01:41.021Z,3.63
2023-04-02T16:03:12.351Z,5.02
2023-04-02T16:04:43.786Z,4.02
2023-04-02T16:06:15.049Z,4.34
2023-04-02T16:07:46.501Z,4.00
2023-04-02T16:09:17.872Z,4.56
2023-04-02T16:10:49.246Z,4.13
2023-04-02T16:12:20.540Z,4.25
2023-04-02T16:13:51.819Z,5.33
2023-04-02T16:15:23.157Z,3.81
2023-04-02T16:16:54.450Z,5.35
2023-04-02T16:18:26.208Z,4.39
2023-04-02T16:19:57.809Z,4.14
2023-04-02T16:21:29.254Z,5.05
2023-04-02T16:23:01.270Z,4.84
2023-04-02T16:24:32.938Z,3.84
2023-04-02T16:26:04.645Z,4.04
2023-04-02T16:27:35.907Z,4.14
2023-04-02T16:29:07.506Z,5.06
2023-04-02T16:30:39.268Z,5.74
2023-04-02T16:32:12.607Z,4.66
2023-04-02T16:33:44.000Z,3.05
2023-04-02T16:35:41.064Z,4.81
2023-04-02T16:37:14.236Z,4.33
2023-04-02T16:38:45.640Z,4.82
2023-04-02T16:40:17.089Z,5.07
2023-04-02T16:41:48.518Z,4.88
2023-04-02T16:43:20.126Z,4.21
2023-04-02T16:44:51.487Z,5.06
2023-04-02T16:46:38.071Z,3.75
2023-04-02T16:48:10.756Z,4.69
2023-04-02T16:49:42.140Z,4.35
2023-04-02T16:51:13.657Z,4.51
2023-04-02T16:52:45.174Z,4.46
2023-04-02T16:54:16.620Z,4.53
2023-04-02T16:55:48.120Z,4.94
2023-04-02T16:57:19.372Z,3.23
2023-04-02T16:58:51.084Z,4.48
2023-04-02T17:00:22.312Z,5.23
2023-04-02T17:01:53.665Z,4.28
2023-04-02T17:03:25.145Z,5.99
2023-04-02T17:04:56.623Z,5.08
2023-04-02T17:06:28.215Z,5.04
2023-04-02T17:07:59.631Z,5.34
2023-04-02T17:09:31.027Z,5.19
2023-04-02T17:11:02.366Z,4.77
2023-04-02T17:12:33.644Z,4.98
2023-04-02T17:14:05.107Z,5.70
2023-04-02T17:15:36.358Z,5.95
2023-04-02T17:17:07.973Z,5.20
2023-04-02T17:18:39.522Z,5.64
2023-04-02T17:20:10.942Z,4.98
2023-04-02T17:21:42.272Z,7.19
2023-04-02T17:23:13.547Z,6.39
2023-04-02T17:24:44.790Z,7.70
2023-04-02T17:26:16.187Z,8.14
2023-04-02T17:27:47.385Z,6.20
2023-04-02T17:29:18.816Z,4.88
2023-04-02T17:30:50.098Z,7.99
2023-04-02T17:32:21.785Z,7.05
2023-04-02T17:33:53.485Z,6.12
2023-04-02T17:35:24.858Z,6.07
2023-04-02T17:36:56.269Z,6.89
2023-04-02T17:38:27.633Z,6.87
2023-04-02T17:39:58.823Z,5.32
2023-04-02T17:41:30.245Z,8.63
2023-04-02T17:43:02.243Z,9.18
2023-04-02T17:44:33.619Z,6.40
2023-04-02T17:46:05.168Z,4.75
2023-04-02T17:47:36.581Z,4.34
2023-04-02T17:49:08.015Z,6.06
2023-04-02T17:50:39.906Z,5.14
2023-04-02T17:52:11.372Z,5.72
2023-04-02T17:53:42.713Z,6.09
2023-04-02T17:55:14.095Z,5.01
2023-04-02T17:56:45.619Z,5.33
2023-04-02T17:58:17.032Z,6.14
2023-04-02T17:59:48.442Z,5.23
2023-04-02T18:01:19.885Z,7.73
2023-04-02T18:02:51.283Z,9.37
2023-04-02T18:04:22.556Z,11.77
2023-04-02T18:05:53.814Z,9.26
2023-04-02T18:07:25.101Z,6.26
2023-04-02T18:08:56.606Z,7.03
2023-04-02T18:10:28.066Z,5.47
2023-04-02T18:12:00.541Z,6.19
2023-04-02T18:13:33.014Z,6.58
2023-04-02T18:15:04.281Z,5.77
2023-04-02T18:16:35.738Z,4.41
2023-04-02T18:18:07.019Z,6.28
2023-04-02T18:19:38.321Z,5.06
2023-04-02T18:21:09.501Z,5.55
2023-04-02T18:22:40.818Z,5.94
2023-04-02T18:24:12.223Z,6.28
2023-04-02T18:25:43.558Z,4.97
2023-04-02T18:27:14.965Z,6.35
2023-04-02T18:28:46.502Z,5.43
2023-04-02T18:30:17.749Z,5.93
2023-04-02T18:31:48.940Z,5.86
2023-04-02T18:33:20.646Z,5.51
2023-04-02T18:34:52.183Z,6.13
2023-04-02T18:36:23.545Z,5.83
2023-04-02T18:37:55.023Z,6.43
2023-04-02T18:39:26.558Z,6.42
2023-04-02T18:40:57.951Z,5.95
2023-04-02T18:42:29.199Z,5.25
2023-04-02T18:44:00.527Z,7.80
2023-04-02T18:45:32.144Z,5.79
2023-04-02T18:47:03.573Z,6.42
2023-04-02T18:48:35.029Z,6.78
2023-04-02T18:50:06.744Z,6.36
2023-04-02T18:51:38.149Z,5.66
2023-04-02T18:53:10.238Z,5.36
2023-04-02T18:54:41.515Z,6.06
2023-04-02T18:56:12.843Z,5.48
2023-04-02T18:57:44.224Z,8.34
2023-04-02T18:59:15.484Z,7.62
2023-04-02T19:00:52.840Z,8.36
2023-04-02T19:02:24.329Z,8.77
2023-04-02T19:03:55.914Z,6.27
2023-04-02T19:05:28.046Z,7.23
2023-04-02T19:06:59.539Z,6.38
2023-04-02T19:08:31.245Z,5.85
2023-04-02T19:10:02.727Z,6.51
2023-04-02T19:11:34.072Z,5.34
2023-04-02T19:13:05.482Z,6.38
2023-04-02T19:14:36.869Z,5.41
2023-04-02T19:16:08.275Z,6.28
2023-04-02T19:17:39.747Z,7.42
2023-04-02T19:19:11.241Z,7.69
2023-04-02T19:20:42.818Z,6.94
2023-04-02T19:22:14.159Z,6.60
2023-04-02T19:23:45.425Z,6.49
2023-04-02T19:25:16.931Z,8.98
2023-04-02T19:26:48.290Z,7.87
2023-04-02T19:28:19.782Z,5.24
2023-04-02T19:29:51.070Z,5.12
2023-04-02T19:31:22.365Z,5.66
2023-04-02T19:32:53.851Z,6.80
2023-04-02T19:34:25.134Z,6.40
2023-04-02T19:35:56.417Z,6.14
2023-04-02T19:37:27.979Z,7.82
2023-04-02T19:38:59.375Z,7.90
2023-04-02T19:40:31.053Z,6.74
2023-04-02T19:42:02.284Z,7.33
2023-04-02T19:43:33.637Z,6.71
2023-04-02T19:45:04.915Z,8.05
2023-04-02T19:46:36.344Z,7.91
2023-04-02T19:48:07.790Z,7.67
2023-04-02T19:49:39.199Z,7.00
2023-04-02T19:51:10.535Z,7.96
2023-04-02T19:52:41.735Z,7.96
2023-04-02T19:54:13.060Z,8.00
2023-04-02T19:55:44.269Z,8.93
2023-04-02T19:57:16.023Z,7.77
2023-04-02T19:58:47.686Z,7.73
2023-04-02T20:00:19.154Z,8.48
2023-04-02T20:01:50.472Z,7.41
2023-04-02T20:03:21.781Z,6.75
2023-04-02T20:04:53.282Z,8.21
2023-04-02T20:06:24.591Z,8.08
2023-04-02T20:07:56.012Z,9.19
2023-04-02T20:09:27.543Z,7.65
2023-04-02T20:10:58.937Z,8.75
2023-04-02T20:12:30.456Z,9.83
2023-04-02T20:14:01.927Z,9.03
2023-04-02T20:15:33.296Z,9.93
2023-04-02T20:17:04.752Z,11.63
2023-04-02T20:18:36.086Z,10.09
2023-04-02T20:20:07.334Z,9.78
2023-04-02T20:21:38.824Z,9.54